createdAt,value
2023-08-22T00:00:19.512Z,70.78
2023-08-22T00:02:43.795Z,70.42
2023-08-22T00:05:08.917Z,69.85
2023-08-22T00:07:32.606Z,70.50
2023-08-22T00:09:57.749Z,69.31
2023-08-22T00:12:21.520Z,71.71
2023-08-22T00:14:45.134Z,70.51
2023-08-22T00:17:09.707Z,70.63
2023-08-22T00:19:33.296Z,71.28
2023-08-22T00:21:56.946Z,70.69
2023-08-22T00:24:20.573Z,72.10
2023-08-22T00:26:45.592Z,71.21
2023-08-22T00:29:09.171Z,70.82
2023-08-22T00:31:32.799Z,71.48
2023-08-22T00:33:56.376Z,70.52
2023-08-22T00:36:20.062Z,71.10
2023-08-22T00:38:43.648Z,72.63
2023-08-22T00:41:07.324Z,72.10
2023-08-22T00:43:32.741Z,72.33
2023-08-22T00:45:56.466Z,70.57
2023-08-22T00:48:20.134Z,72.05
2023-08-22T00:50:44.548Z,73.06
2023-08-22T00:53:08.394Z,73.37
2023-08-22T00:55:32.295Z,71.17
2023-08-22T00:57:56.004Z,71.32
2023-08-22T01:00:21.181Z,71.97
2023-08-22T01:02:45.169Z,73.54
2023-08-22T01:05:10.757Z,72.83
2023-08-22T01:07:39.837Z,72.72
2023-08-22T01:10:10.692Z,72.93
2023-08-22T01:12:43.630Z,72.34
2023-08-22T01:15:15.254Z,72.37
2023-08-22T01:17:42.789Z,72.80
2023-08-22T01:20:13.093Z,73.36
2023-08-22T01:22:38.619Z,72.93
2023-08-22T01:25:05.445Z,73.21
2023-08-22T01:27:38.445Z,72.13
2023-08-22T01:30:12.938Z,71.40
2023-08-22T01:32:41.883Z,71.08
2023-08-22T01:35:12.296Z,75.39
2023-08-22T01:37:40.343Z,72.32
2023-08-22T01:40:08.942Z,74.51
2023-08-22T01:42:33.132Z,72.29
2023-08-22T01:44:56.755Z,72.93
2023-08-22T01:47:20.465Z,73.99
2023-08-22T01:49:44.069Z,73.79
2023-08-22T01:52:07.918Z,73.92
2023-08-22T01:54:32.936Z,72.70
2023-08-22T01:56:56.608Z,74.05
2023-08-22T01:59:20.403Z,74.82
2023-08-22T02:01:44.788Z,76.01
2023-08-22T02:04:08.426Z,73.31
2023-08-22T02:06:32.269Z,75.10
2023-08-22T02:08:55.881Z,73.88
2023-08-22T02:11:21.227Z,73.52
2023-08-22T02:13:45.890Z,72.57
2023-08-22T02:16:09.604Z,73.05
2023-08-22T02:18:33.825Z,74.42
2023-08-22T02:21:00.853Z,74.33
2023-08-22T02:23:24.656Z,72.23
2023-08-22T02:25:49.280Z,72.77
2023-08-22T02:28:14.484Z,72.82
2023-08-22T02:30:38.426Z,72.57
2023-08-22T02:33:02.153Z,72.17
2023-08-22T02:35:26.226Z,72.45
2023-08-22T02:37:49.813Z,72.72
2023-08-22T02:40:13.943Z,71.55
2023-08-22T02:42:37.602Z,75.30
2023-08-22T02:45:02.722Z,73.37
2023-08-22T02:47:26.502Z,74.24
2023-08-22T02:49:50.369Z,74.63
2023-08-22T02:52:14.205Z,73.81
2023-08-22T02:54:37.864Z,72.48
2023-08-22T02:57:03.969Z,75.18
2023-08-22T02:59:27.598Z,74.68
2023-08-22T03:01:52.624Z,73.34
2023-08-22T03:04:16.880Z,74.55
2023-08-22T03:06:41.047Z,72.92
2023-08-22T03:09:05.399Z,75.27
2023-08-22T03:11:28.992Z,75.82
2023-08-22T03:13:53.426Z,74.73
2023-08-22T03:16:17.125Z,76.17
2023-08-22T03:18:44.905Z,74.78
2023-08-22T03:21:10.657Z,73.41
2023-08-22T03:23:34.420Z,72.07
2023-08-22T03:26:00.131Z,72.98
2023-08-22T03:28:24.660Z,73.34
2023-08-22T03:30:48.296Z,72.19
2023-08-22T03:33:12.194Z,74.97
2023-08-22T03:35:37.276Z,73.41
2023-08-22T03:38:01.006Z,74.16
2023-08-22T03:40:25.019Z,74.40
2023-08-22T03:42:48.737Z,72.18
2023-08-22T03:45:12.687Z,72.04
2023-08-22T03:47:36.907Z,72.65
2023-08-22T03:50:01.557Z,72.40
2023-08-22T03:52:28.169Z,73.50
2023-08-22T03:54:52.439Z,74.75
2023-08-22T03:57:16.570Z,76.03
2023-08-22T03:59:40.206Z,75.45
2023-08-22T04:02:03.982Z,73.17
2023-08-22T04:04:27.613Z,73.40
2023-08-22T04:06:51.331Z,74.22
2023-08-22T04:09:16.291Z,73.08
2023-08-22T04:11:41.239Z,73.52
2023-08-22T04:14:04.883Z,73.57
2023-08-22T04:16:28.672Z,73.82
2023-08-22T04:18:52.307Z,74.26
2023-08-22T04:21:16.004Z,75.42
2023-08-22T04:23:39.836Z,74.79
2023-08-22T04:26:04.989Z,75.15
2023-08-22T04:28:29.041Z,74.67
2023-08-22T04:30:53.277Z,74.52
2023-08-22T04:33:17.017Z,73.82
2023-08-22T04:35:40.869Z,74.24
2023-08-22T04:38:05.112Z,75.14
2023-08-22T04:40:29.875Z,74.61
2023-08-22T04:43:05.276Z,73.83
2023-08-22T04:45:29.972Z,75.59
2023-08-22T04:47:53.701Z,75.22
2023-08-22T04:50:18.376Z,74.90
2023-08-22T04:52:42.187Z,73.56
2023-08-22T04:55:06.819Z,73.60
2023-08-22T04:57:30.851Z,74.63
2023-08-22T04:59:57.319Z,73.71
2023-08-22T05:02:22.025Z,73.96
2023-08-22T05:04:46.323Z,74.38
2023-08-22T05:07:10.158Z,73.91
2023-08-22T05:09:33.874Z,74.16
2023-08-22T05:11:57.547Z,74.13
2023-08-22T05:14:23.070Z,74.68
2023-08-22T05:16:48.239Z,73.74
2023-08-22T05:19:12.133Z,74.07
2023-08-22T05:21:35.966Z,74.05
2023-08-22T05:23:59.669Z,74.12
2023-08-22T05:26:23.350Z,73.49
2023-08-22T05:28:47.790Z,74.56
2023-08-22T05:31:11.465Z,73.02
2023-08-22T05:33:36.879Z,73.53
2023-08-22T05:36:00.465Z,73.94
2023-08-22T05:38:24.216Z,72.25
2023-08-22T05:40:47.824Z,72.55
2023-08-22T05:43:11.526Z,71.99
2023-08-22T05:45:35.156Z,73.12
2023-08-22T05:48:00.385Z,72.20
2023-08-22T05:50:25.660Z,71.32
2023-08-22T05:52:49.378Z,71.89
2023-08-22T05:55:13.306Z,71.14
2023-08-22T05:57:38.562Z,72.43
2023-08-22T06:00:04.305Z,70.57
2023-08-22T06:02:40.632Z,69.96
2023-08-22T06:05:04.439Z,68.18
2023-08-22T06:07:29.482Z,68.47
2023-08-22T06:09:53.134Z,68.28
2023-08-22T06:12:17.567Z,68.31
2023-08-22T06:14:41.322Z,68.85
2023-08-22T06:17:06.449Z,69.47
2023-08-22T06:19:30.143Z,67.83
2023-08-22T06:21:53.877Z,69.68
2023-08-22T06:24:20.023Z,68.32
2023-08-22T06:26:43.819Z,67.68
2023-08-22T06:29:08.317Z,67.64
2023-08-22T06:31:32.562Z,65.99
2023-08-22T06:33:56.508Z,68.41
2023-08-22T06:36:20.386Z,67.13
2023-08-22T06:38:44.645Z,66.14
2023-08-22T06:41:09.991Z,66.66
2023-08-22T06:43:33.892Z,67.45
2023-08-22T06:45:59.397Z,66.43
2023-08-22T06:48:38.446Z,65.34
2023-08-22T06:51:05.292Z,64.15
2023-08-22T06:53:28.947Z,63.71
2023-08-22T06:55:52.634Z,65.58
2023-08-22T06:58:18.212Z,63.23
2023-08-22T07:00:42.231Z,64.15
2023-08-22T07:03:07.450Z,65.38
2023-08-22T07:05:33.452Z,64.39
2023-08-22T07:07:58.494Z,63.76
2023-08-22T07:10:22.335Z,63.29
2023-08-22T07:12:45.966Z,63.36
2023-08-22T07:15:12.119Z,65.28
2023-08-22T07:17:36.408Z,65.61
2023-08-22T07:20:00.297Z,66.78
2023-08-22T07:22:24.803Z,66.21
2023-08-22T07:24:48.466Z,68.48
2023-08-22T07:27:12.906Z,67.74
2023-08-22T07:29:36.573Z,68.87
2023-08-22T07:32:01.552Z,68.91
2023-08-22T07:34:25.240Z,65.42
2023-08-22T07:36:48.814Z,65.07
2023-08-22T07:39:12.496Z,66.98
2023-08-22T07:41:36.110Z,63.44
2023-08-22T07:43:59.784Z,65.51
2023-08-22T07:46:23.449Z,64.26
2023-08-22T07:48:48.574Z,65.86
2023-08-22T07:51:12.215Z,63.80
2023-08-22T07:53:35.934Z,66.20
2023-08-22T07:55:59.587Z,65.70
2023-08-22T07:58:23.327Z,63.98
2023-08-22T08:00:50.008Z,63.18
2023-08-22T08:03:13.784Z,63.49
2023-08-22T08:05:38.847Z,61.82
2023-08-22T08:08:02.496Z,63.48
2023-08-22T08:10:26.150Z,64.69
2023-08-22T08:12:49.836Z,64.78
2023-08-22T08:15:13.444Z,63.00
2023-08-22T08:17:37.290Z,65.06
2023-08-22T08:20:00.959Z,61.42
2023-08-22T08:22:26.028Z,59.09
2023-08-22T08:24:49.605Z,59.54
2023-08-22T08:27:13.239Z,57.58
2023-08-22T08:29:36.873Z,58.54
2023-08-22T08:32:00.773Z,57.63
2023-08-22T08:34:24.509Z,56.11
2023-08-22T08:36:48.192Z,57.28
2023-08-22T08:39:13.151Z,56.39
2023-08-22T08:41:40.219Z,56.05
2023-08-22T08:44:04.983Z,55.70
2023-08-22T08:46:30.551Z,55.15
2023-08-22T08:48:55.636Z,60.87
2023-08-22T08:51:19.318Z,56.70
2023-08-22T08:53:44.245Z,57.90
2023-08-22T08:56:11.543Z,57.54
2023-08-22T08:58:40.582Z,60.64
2023-08-22T09:01:06.320Z,60.76
2023-08-22T09:03:31.366Z,62.65
2023-08-22T09:05:55.148Z,55.07
2023-08-22T09:08:20.903Z,56.46
2023-08-22T09:10:44.791Z,54.25
2023-08-22T09:13:09.836Z,55.82
2023-08-22T09:15:35.150Z,55.51
2023-08-22T09:18:01.808Z,56.42
2023-08-22T09:20:25.636Z,55.85
2023-08-22T09:22:49.827Z,54.44
2023-08-22T09:25:13.528Z,54.48
2023-08-22T09:27:37.166Z,53.96
2023-08-22T09:30:05.724Z,53.76
2023-08-22T09:32:29.704Z,53.40
2023-08-22T09:34:58.071Z,55.11
2023-08-22T09:37:33.071Z,54.05
2023-08-22T09:39:57.328Z,52.51
2023-08-22T09:42:21.004Z,54.77
2023-08-22T09:44:45.176Z,54.62
2023-08-22T09:47:10.721Z,56.00
2023-08-22T09:49:35.817Z,54.36
2023-08-22T09:51:59.960Z,55.78
2023-08-22T09:54:25.872Z,53.78
2023-08-22T09:56:49.819Z,53.65
2023-08-22T09:59:15.515Z,55.01
2023-08-22T10:01:41.252Z,53.62
2023-08-22T10:04:07.491Z,52.99
2023-08-22T10:06:45.740Z,53.74
2023-08-22T10:09:12.978Z,54.04
2023-08-22T10:11:41.751Z,52.23
2023-08-22T10:14:06.338Z,51.45
2023-08-22T10:16:32.265Z,54.15
2023-08-22T10:19:03.170Z,50.48
2023-08-22T10:21:28.480Z,50.02
2023-08-22T10:23:59.653Z,50.51
2023-08-22T10:26:25.124Z,50.37
2023-08-22T10:29:15.454Z,52.46
2023-08-22T10:32:25.035Z,50.14
2023-08-22T10:35:28.520Z,49.83
2023-08-22T10:37:54.965Z,49.71
2023-08-22T10:40:35.093Z,49.39
2023-08-22T10:43:14.901Z,45.85
2023-08-22T10:45:53.975Z,50.07
2023-08-22T10:48:20.492Z,47.01
2023-08-22T10:50:45.649Z,48.38
2023-08-22T10:53:28.857Z,46.63
2023-08-22T10:55:53.586Z,47.71
2023-08-22T10:58:37.664Z,47.37
2023-08-22T11:01:01.665Z,47.83
2023-08-22T11:03:25.387Z,48.20
2023-08-22T11:05:49.802Z,47.46
2023-08-22T11:08:13.448Z,47.11
2023-08-22T11:10:40.487Z,48.48
2023-08-22T11:13:10.791Z,49.17
2023-08-22T11:15:34.719Z,48.67
2023-08-22T11:17:58.412Z,46.34
2023-08-22T11:20:23.202Z,45.66
2023-08-22T11:22:47.758Z,47.56
2023-08-22T11:25:13.521Z,45.50
2023-08-22T11:27:41.563Z,47.25
2023-08-22T11:30:06.084Z,46.53
2023-08-22T11:32:32.549Z,45.78
2023-08-22T11:35:00.484Z,45.77
2023-08-22T11:37:24.878Z,44.59
2023-08-22T11:39:49.121Z,45.24
2023-08-22T11:42:12.773Z,44.47
2023-08-22T11:44:54.871Z,43.58
2023-08-22T11:47:18.524Z,44.89
2023-08-22T11:49:45.224Z,43.78
2023-08-22T11:52:10.930Z,42.51
2023-08-22T11:54:34.624Z,41.85
2023-08-22T11:57:02.236Z,43.08
2023-08-22T11:59:25.866Z,41.32
2023-08-22T12:01:51.198Z,45.62
2023-08-22T12:04:14.905Z,42.80
2023-08-22T12:06:38.646Z,42.07
2023-08-22T12:09:02.637Z,39.09
2023-08-22T12:11:27.793Z,42.76
2023-08-22T12:13:51.550Z,44.49
2023-08-22T12:16:15.284Z,41.90
2023-08-22T12:18:40.858Z,43.70
2023-08-22T12:21:05.073Z,41.69
2023-08-22T12:23:28.647Z,40.29
2023-08-22T12:25:52.631Z,41.14
2023-08-22T12:28:16.612Z,40.88
2023-08-22T12:30:42.288Z,41.10
2023-08-22T12:33:09.199Z,39.51
2023-08-22T12:35:35.355Z,39.16
2023-08-22T12:37:58.978Z,39.74
2023-08-22T12:40:22.844Z,42.55
2023-08-22T12:42:47.095Z,40.15
2023-08-22T12:45:14.094Z,39.80
2023-08-22T12:47:39.774Z,42.24
2023-08-22T12:50:03.445Z,42.28
2023-08-22T12:52:28.416Z,40.81
2023-08-22T12:54:52.104Z,42.22
2023-08-22T12:57:15.852Z,41.71
2023-08-22T12:59:39.862Z,43.31
2023-08-22T13:02:03.591Z,43.69
2023-08-22T13:04:27.373Z,44.00
2023-08-22T13:06:51.063Z,44.80
2023-08-22T13:09:16.094Z,45.33
2023-08-22T13:11:43.842Z,43.62
2023-08-22T13:14:08.548Z,43.60
2023-08-22T13:16:32.258Z,45.90
2023-08-22T13:18:55.994Z,42.87
2023-08-22T13:21:19.595Z,45.39
2023-08-22T13:23:43.254Z,45.34
2023-08-22T13:26:08.496Z,47.63
2023-08-22T13:28:32.132Z,45.58
2023-08-22T13:30:55.779Z,43.99
2023-08-22T13:33:19.427Z,43.49
2023-08-22T13:35:43.018Z,43.17
2023-08-22T13:38:06.900Z,43.85
2023-08-22T13:40:31.649Z,43.62
2023-08-22T13:42:56.821Z,43.60
2023-08-22T13:45:20.676Z,46.42
2023-08-22T13:47:44.712Z,45.33
2023-08-22T13:50:10.297Z,44.62
2023-08-22T13:52:33.982Z,45.85
2023-08-22T13:54:57.855Z,44.27
2023-08-22T13:57:21.473Z,44.76
2023-08-22T13:59:47.619Z,45.31
2023-08-22T14:02:11.311Z,43.07
2023-08-22T14:04:34.919Z,44.14
2023-08-22T14:06:58.611Z,46.54
2023-08-22T14:11:48.730Z,47.97
2023-08-22T14:14:13.470Z,44.49
2023-08-22T14:16:38.527Z,44.11
2023-08-22T14:19:02.167Z,44.20
2023-08-22T14:21:33.425Z,45.76
2023-08-22T14:24:10.341Z,46.37
2023-08-22T14:26:33.971Z,43.79
2023-08-22T14:28:57.728Z,45.27
2023-08-22T14:31:21.356Z,43.06
2023-08-22T14:33:46.406Z,43.45
2023-08-22T14:36:11.700Z,42.61
2023-08-22T14:38:37.066Z,46.09
2023-08-22T14:41:01.410Z,44.91
2023-08-22T14:43:27.748Z,46.71
2023-08-22T14:45:51.461Z,43.48
2023-08-22T14:48:15.162Z,43.43
2023-08-22T14:50:44.165Z,43.00
2023-08-22T14:53:07.843Z,42.96
2023-08-22T14:55:31.409Z,46.57
2023-08-22T14:57:55.332Z,43.84
2023-08-22T15:00:20.815Z,43.89
2023-08-22T15:02:44.533Z,44.37
2023-08-22T15:05:09.005Z,44.02
2023-08-22T15:07:34.033Z,46.58
2023-08-22T15:09:58.550Z,42.84
2023-08-22T15:12:22.230Z,44.49
2023-08-22T15:14:45.870Z,44.19
2023-08-22T15:17:09.524Z,47.54
2023-08-22T15:19:33.078Z,43.40
2023-08-22T15:21:56.743Z,43.56
2023-08-22T15:24:22.171Z,44.69
2023-08-22T15:26:46.168Z,43.10
2023-08-22T15:29:09.734Z,42.99
2023-08-22T15:31:33.473Z,47.04
2023-08-22T15:33:57.095Z,44.55
2023-08-22T15:36:20.773Z,44.86
2023-08-22T15:38:44.398Z,45.44
2023-08-22T15:41:11.741Z,48.16
2023-08-22T15:43:35.380Z,47.19
2023-08-22T15:45:59.041Z,46.81
2023-08-22T15:48:22.632Z,47.26
2023-08-22T15:50:47.330Z,47.62
2023-08-22T15:53:11.037Z,47.78
2023-08-22T15:55:34.703Z,49.23
2023-08-22T15:58:00.437Z,50.07
2023-08-22T16:00:24.520Z,49.75
2023-08-22T16:02:48.466Z,47.53
2023-08-22T16:05:12.116Z,45.85
2023-08-22T16:07:35.716Z,45.31
2023-08-22T16:09:59.456Z,46.91
2023-08-22T16:12:23.083Z,48.09
2023-08-22T16:14:48.293Z,49.02
2023-08-22T16:17:12.591Z,48.02
2023-08-22T16:19:36.310Z,49.19
2023-08-22T16:21:59.891Z,50.79
2023-08-22T16:24:23.655Z,49.82
2023-08-22T16:26:48.962Z,54.41
2023-08-22T16:29:12.591Z,46.06
2023-08-22T16:31:37.594Z,45.41
2023-08-22T16:34:04.364Z,46.75
2023-08-22T16:36:28.050Z,48.28
2023-08-22T16:38:51.722Z,49.29
2023-08-22T16:41:15.379Z,49.73
2023-08-22T16:43:39.038Z,47.84
2023-08-22T16:46:03.054Z,44.05
2023-08-22T16:48:28.200Z,51.15
2023-08-22T16:50:51.973Z,49.89
2023-08-22T16:53:16.488Z,47.74
2023-08-22T16:55:40.992Z,49.16
2023-08-22T16:58:04.817Z,50.89
2023-08-22T17:00:28.481Z,51.71
2023-08-22T17:02:52.195Z,52.21
2023-08-22T17:05:17.363Z,50.81
2023-08-22T17:07:41.296Z,51.03
2023-08-22T17:10:09.328Z,52.90
2023-08-22T17:12:33.059Z,52.99
2023-08-22T17:14:56.677Z,53.70
2023-08-22T17:17:20.335Z,52.98
2023-08-22T17:19:43.927Z,53.35
2023-08-22T17:22:08.974Z,55.53
2023-08-22T17:24:32.610Z,55.23
2023-08-22T17:26:56.309Z,56.22
2023-08-22T17:29:20.017Z,55.42
2023-08-22T17:31:43.676Z,56.50
2023-08-22T17:34:07.246Z,55.95
2023-08-22T17:36:30.879Z,57.19
2023-08-22T17:38:55.934Z,58.24
2023-08-22T17:41:19.937Z,58.92
2023-08-22T17:43:44.528Z,58.84
2023-08-22T17:46:09.039Z,59.91
2023-08-22T17:48:33.187Z,59.75
2023-08-22T17:50:57.512Z,60.71
2023-08-22T17:53:22.258Z,61.26
2023-08-22T17:55:47.362Z,61.13
2023-08-22T17:58:10.936Z,61.37
2023-08-22T18:00:34.668Z,61.52
2023-08-22T18:02:58.554Z,61.96
2023-08-22T18:05:22.503Z,62.41
2023-08-22T18:07:46.368Z,62.74
2023-08-22T18:10:11.321Z,62.67
2023-08-22T18:12:36.352Z,62.96
2023-08-22T18:15:00.009Z,63.44
2023-08-22T18:17:23.761Z,63.82
2023-08-22T18:19:47.487Z,64.01
2023-08-22T18:22:12.390Z,64.78
2023-08-22T18:24:36.132Z,65.38
2023-08-22T18:26:59.718Z,66.17
2023-08-22T18:29:24.730Z,66.31
2023-08-22T18:31:48.416Z,65.69
2023-08-22T18:34:12.336Z,66.00
2023-08-22T18:36:35.960Z,66.52
2023-08-22T18:38:59.638Z,66.98
2023-08-22T18:41:23.240Z,67.81
2023-08-22T18:43:47.315Z,68.79
2023-08-22T18:46:12.529Z,69.09
2023-08-22T18:48:36.239Z,69.73
2023-08-22T18:51:00.659Z,69.79
2023-08-22T18:53:24.348Z,70.75
2023-08-22T18:55:48.019Z,71.16
2023-08-22T18:58:11.666Z,70.87
2023-08-22T19:00:35.252Z,71.58
2023-08-22T19:03:00.406Z,71.67
2023-08-22T19:05:24.068Z,72.23
2023-08-22T19:07:48.032Z,72.15
2023-08-22T19:10:12.596Z,72.77
2023-08-22T19:12:36.261Z,72.78
2023-08-22T19:15:01.457Z,72.81
2023-08-22T19:17:25.168Z,73.02
2023-08-22T19:19:50.366Z,72.47
2023-08-22T19:22:14.064Z,72.16
2023-08-22T19:24:37.653Z,73.06
2023-08-22T19:27:02.031Z,73.21
2023-08-22T19:29:27.028Z,73.24
2023-08-22T19:31:58.645Z,73.21
2023-08-22T19:34:32.489Z,72.99
2023-08-22T19:36:57.463Z,72.60
2023-08-22T19:39:21.136Z,73.12
2023-08-22T19:41:44.734Z,73.89
2023-08-22T19:44:10.491Z,73.71
2023-08-22T19:46:34.539Z,73.48
2023-08-22T19:48:58.810Z,73.43
2023-08-22T19:51:22.460Z,73.52
2023-08-22T19:53:47.498Z,74.39
2023-08-22T19:56:11.120Z,74.81
2023-08-22T19:58:34.886Z,75.12
2023-08-22T20:00:59.210Z,75.47
2023-08-22T20:03:22.951Z,74.83
2023-08-22T20:05:48.253Z,74.02
2023-08-22T20:08:12.016Z,74.70
2023-08-22T20:10:37.018Z,74.94
2023-08-22T20:13:00.681Z,77.63
2023-08-22T20:15:24.327Z,78.26
2023-08-22T20:17:48.295Z,79.15
2023-08-22T20:20:12.911Z,77.67
2023-08-22T20:22:36.605Z,78.46
2023-08-22T20:25:01.454Z,78.90
2023-08-22T20:27:26.647Z,80.47
2023-08-22T20:29:50.223Z,79.27
2023-08-22T20:32:14.781Z,78.74
2023-08-22T20:34:38.467Z,78.46
2023-08-22T20:37:02.224Z,78.79
2023-08-22T20:39:29.149Z,78.01
2023-08-22T20:41:53.022Z,77.94
2023-08-22T20:44:17.990Z,78.36
2023-08-22T20:46:41.728Z,78.45
2023-08-22T20:49:06.054Z,78.88
2023-08-22T20:51:29.679Z,79.26
2023-08-22T20:53:53.274Z,78.92
2023-08-22T20:56:16.971Z,79.13
2023-08-22T20:58:40.626Z,79.11
2023-08-22T21:01:05.656Z,78.88
2023-08-22T21:03:29.342Z,79.69
2023-08-22T21:05:53.056Z,79.44
2023-08-22T21:08:16.700Z,81.75
2023-08-22T21:10:40.413Z,81.46
2023-08-22T21:13:04.058Z,81.87
2023-08-22T21:15:27.696Z,80.62
2023-08-22T21:17:53.173Z,80.07
2023-08-22T21:20:17.095Z,80.05
2023-08-22T21:22:40.855Z,81.55
2023-08-22T21:25:04.742Z,80.43
2023-08-22T21:27:28.330Z,80.23
2023-08-22T21:29:51.974Z,80.88
2023-08-22T21:32:15.808Z,80.49
2023-08-22T21:34:45.238Z,80.39
2023-08-22T21:37:08.900Z,80.73
2023-08-22T21:39:32.581Z,81.93
2023-08-22T21:41:56.198Z,81.81
2023-08-22T21:44:20.844Z,80.87
2023-08-22T21:46:44.493Z,80.78
2023-08-22T21:49:08.153Z,81.41
2023-08-22T21:51:33.134Z,81.05
2023-08-22T21:53:56.803Z,81.79
2023-08-22T21:56:22.362Z,81.79
2023-08-22T21:58:46.088Z,81.82
2023-08-22T22:01:14.002Z,81.30
2023-08-22T22:03:37.854Z,81.28
2023-08-22T22:06:03.969Z,81.65
2023-08-22T22:08:29.058Z,81.52
2023-08-22T22:10:53.955Z,81.46
2023-08-22T22:13:17.640Z,81.57
2023-08-22T22:15:41.306Z,82.50
2023-08-22T22:18:05.569Z,81.82
2023-08-22T22:20:29.232Z,82.92
2023-08-22T22:22:52.960Z,81.89
2023-08-22T22:25:18.082Z,83.23
2023-08-22T22:27:42.019Z,83.86
2023-08-22T22:30:06.788Z,82.77
2023-08-22T22:32:30.459Z,82.44
2023-08-22T22:34:54.068Z,82.49
2023-08-22T22:37:17.746Z,82.80
2023-08-22T22:39:41.539Z,82.58
2023-08-22T22:42:07.187Z,82.20
2023-08-22T22:44:30.835Z,83.14
2023-08-22T22:46:54.638Z,85.31
2023-08-22T22:49:18.320Z,83.90
2023-08-22T22:51:41.998Z,84.04
2023-08-22T22:54:06.014Z,82.74
2023-08-22T22:56:29.802Z,83.31
2023-08-22T22:58:54.783Z,83.42
2023-08-22T23:01:18.494Z,83.46
2023-08-22T23:03:42.244Z,83.95
2023-08-22T23:06:10.252Z,83.20
2023-08-22T23:08:42.042Z,82.70
2023-08-22T23:11:14.401Z,83.00
2023-08-22T23:13:46.675Z,82.97
2023-08-22T23:16:10.347Z,83.14
2023-08-22T23:18:34.050Z,83.36
2023-08-22T23:20:57.665Z,85.82
2023-08-22T23:23:21.307Z,87.37
2023-08-22T23:25:51.627Z,84.32
2023-08-22T23:28:15.285Z,84.33
2023-08-22T23:30:38.931Z,84.13
2023-08-22T23:33:02.639Z,85.55
2023-08-22T23:35:25.234Z,84.42
2023-08-22T23:37:49.277Z,83.71
2023-08-22T23:40:24.392Z,83.98
2023-08-22T23:42:49.954Z,83.60
2023-08-22T23:45:13.568Z,83.58
2023-08-22T23:47:37.239Z,83.98
2023-08-22T23:50:00.844Z,83.89
2023-08-22T23:52:24.593Z,83.93
2023-08-22T23:54:48.416Z,84.47
2023-08-22T23:57:12.116Z,84.52
2023-08-22T23:59:37.155Z,84.86
